Latest Weather Observations for Armidale Airport

IDN60801

Issued at 5:12 pm EDT Thursday 21 February 2019 (issued every 10 minutes, with the page automatically refreshed every 10 minutes)

About weather observations | Map of weather stations | Latest weather observations for NSW | Other Formats
Station Details ID: 056238 Name: ARMIDALE AIRPORT AWS Lat: -30.53 Lon: 151.62 Height: 1079.0 m
Data from the previous 72 hours. | See also: Recent months at Armidale Airport
Date/Time
EDT
Temp
°C
App
Temp
°C
Dew
Point
°C
Rel
Hum
%
Delta-T
°C
Wind Press
QNH
hPa
Press
MSL
hPa
Rain since
9am
mm
Dir  Spd
km/h
Gust
km/h
Spd
kts
Gust
kts
21/05:00pm 24.2 20.1 13.7 52 6.4 ESE 28 37 15 20 1014.7 1008.8 0.2
21/04:30pm 24.6 20.5 15.0 55 6.0 E 30 44 16 24 1014.6 1008.7 0.2
21/04:00pm 25.6 21.9 15.9 55 6.2 ESE 30 41 16 22 1014.5 1008.6 0.2
21/03:30pm 26.5 24.4 16.1 52 6.7 ESE 22 32 12 17 1014.6 1008.7 0.2
21/03:00pm 25.3 21.6 15.0 53 6.5 ESE 28 37 15 20 1015.0 1009.2 0.2
21/02:30pm 25.7 22.9 15.4 53 6.5 E 24 33 13 18 1015.4 1009.5 0.2
21/02:00pm 26.1 24.0 15.2 51 6.9 E 20 32 11 17 1015.6 1009.7 0.2
21/01:30pm 25.6 23.6 15.0 52 6.7 E 19 28 10 15 1016.0 1010.2 0.2
21/01:00pm 25.2 23.6 16.1 57 5.8 ESE 19 26 10 14 1016.4 1010.5 0.2
21/12:30pm 23.6 21.3 14.6 57 5.6 E 20 33 11 18 1016.7 1010.9 0.0
21/12:00pm 22.6 19.6 14.7 61 4.9 ESE 24 32 13 17 1016.9 1011.1 0.0
21/11:30am 22.3 19.5 15.4 65 4.3 ESE 24 33 13 18 1017.0 1011.2 0.0
21/11:00am 21.7 18.9 15.3 67 4.0 ESE 24 35 13 19 1017.1 1011.3 0.0
21/10:30am 20.3 18.2 15.1 72 3.2 ESE 20 30 11 16 1016.9 1011.1 0.0
21/10:00am 20.2 17.9 15.6 75 2.9 E 22 28 12 15 1016.8 1011.0 0.0
21/09:30am 19.1 17.2 15.8 81 2.1 E 20 26 11 14 1016.7 1010.9 0.0
21/09:00am 17.9 16.6 15.9 88 1.2 E 17 22 9 12 1016.4 1010.5 1.4
21/08:30am 17.3 15.0 15.6 90 1.0 ENE 22 26 12 14 1015.9 1010.1 1.4
21/08:00am 17.0 15.1 15.7 92 0.8 ENE 20 26 11 14 1015.5 1009.6 1.4
21/07:30am 16.5 14.6 15.7 95 0.5 ENE 20 26 11 14 1015.3 1009.4 1.4
21/07:00am 16.1 14.3 15.5 96 0.4 ENE 19 24 10 13 1014.9 1009.1 1.4
21/06:30am 15.9 13.5 15.4 97 0.3 E 22 28 12 15 1014.4 1008.5 1.4
21/06:00am 16.0 14.0 15.4 96 0.4 E 20 30 11 16 1014.0 1008.2 1.4
21/05:30am 16.0 14.1 15.7 98 0.2 E 20 26 11 14 1013.5 1007.6 1.4
21/05:00am 15.9 14.1 15.6 98 0.2 E 19 22 10 12 1013.3 1007.4 1.4
21/04:30am 16.1 14.8 15.9 99 0.1 E 17 24 9 13 1013.3 1007.4 1.4
21/04:00am 16.0 14.3 15.8 99 0.1 E 19 22 10 12 1013.0 1007.1 1.4
21/03:30am 16.2 14.4 16.0 99 0.1 E 20 26 11 14 1013.0 1007.1 1.4
21/03:00am 16.3 15.1 16.0 98 0.2 E 17 22 9 12 1013.3 1007.4 1.4
21/02:39am 16.6 14.8 16.1 97 0.3 E 20 24 11 13 1013.4 1007.5 1.4
21/02:30am 16.7 15.1 15.9 95 0.5 E 19 24 10 13 1013.5 1007.6 1.4
21/02:16am 17.0 15.5 16.2 95 0.5 E 19 24 10 13 1013.5 1007.6 1.4
21/02:00am 17.2 14.5 15.7 91 0.9 ENE 24 32 13 17 1013.6 1007.7 1.4
21/01:30am 17.5 14.6 16.2 92 0.8 ENE 26 33 14 18 1013.9 1008.1 1.4
21/01:00am 17.6 15.8 17.0 96 0.4 E 22 30 12 16 1014.3 1008.4 1.4
21/12:30am 17.4 16.0 16.9 97 0.3 E 20 26 11 14 1014.4 1008.5 1.4
21/12:00am 17.5 16.4 17.3 99 0.1 E 19 26 10 14 1014.5 1008.6 1.4
 
Date/Time
EDT
Temp
°C
App
Temp
°C
Dew
Point
°C
Rel
Hum
%
Delta-T
°C
Wind Press
QNH
hPa
Press
MSL
hPa
Rain since
9am
mm
Dir  Spd
km/h
Gust
km/h
Spd
kts
Gust
kts
20/11:30pm 17.4 16.2 17.1 98 0.2 ESE 19 26 10 14 1014.4 1008.5 1.4
20/11:00pm 17.5 16.1 16.9 96 0.4 ENE 20 28 11 15 1014.4 1008.5 1.4
20/10:49pm 17.6 16.4 17.0 96 0.4 ENE 19 24 10 13 1014.5 1008.6 1.4
20/10:31pm 17.7 16.4 16.9 95 0.5 ENE 19 24 10 13 1014.4 1008.5 1.4
20/10:30pm 17.7 16.4 16.9 95 0.5 ENE 19 24 10 13 1014.5 1008.6 1.4
20/10:00pm 18.0 16.6 16.9 93 0.7 ENE 20 28 11 15 1014.6 1008.7 1.4
20/09:30pm 18.2 15.7 17.0 93 0.8 ENE 26 37 14 20 1014.4 1008.5 1.4
20/09:00pm 18.6 16.2 17.4 93 0.8 E 26 35 14 19 1013.5 1007.6 1.4
20/08:30pm 19.1 17.0 18.1 94 0.6 E 26 33 14 18 1012.9 1007.0 1.4
20/08:27pm 19.0 17.3 18.0 94 0.6 E 24 33 13 18 1012.7 1006.8 1.4
20/08:00pm 20.3 19.1 18.4 89 1.2 E 22 39 12 21 1011.8 1005.9 1.4
20/07:30pm 19.9 19.5 16.3 80 2.3 ENE 13 20 7 11 1011.7 1005.8 1.4
20/07:00pm 21.2 21.7 14.1 64 4.3 E 4 7 2 4 1012.8 1006.9 0.8
20/06:30pm 21.8 20.1 12.4 55 5.6 W 13 26 7 14 1012.4 1006.5 0.2
20/06:00pm 25.1 18.3 9.4 37 9.0 NW 35 57 19 31 1011.1 1005.2 0.0
20/05:56pm 26.6 21.1 9.0 33 10.1 NW 28 50 15 27 1011.0 1005.1 0.0
20/05:30pm 27.9 24.1 11.0 35 10.1 WSW 22 32 12 17 1010.5 1004.5 0.0
20/05:00pm 28.1 22.8 9.9 32 10.7 WSW 28 35 15 19 1009.8 1003.9 0.0
20/04:37pm 30.0 24.1 9.0 27 12.2 W 30 48 16 26 1009.8 1003.9 0.0
20/04:30pm 31.2 24.9 7.6 23 13.5 W 30 39 16 21 1009.7 1003.7 0.0
20/04:00pm 33.4 27.1 7.4 20 15.0 W 30 41 16 22 1010.0 1004.1 0.0
20/03:44pm 33.0 27.3 8.5 22 14.4 WNW 28 46 15 25 1010.3 1004.3 0.0
20/03:30pm 32.7 27.9 8.9 23 14.0 WNW 24 39 13 21 1010.4 1004.4 0.0
20/03:00pm 34.1 27.4 7.2 19 15.6 NW 32 41 17 22 1010.8 1004.9 0.0
20/02:30pm 31.9 26.8 7.5 22 14.0 NW 24 37 13 20 1011.4 1005.4 0.0
20/02:00pm 31.4 27.0 9.0 25 13.2 NW 22 37 12 20 1011.8 1005.9 0.0
20/01:30pm 31.9 27.5 8.8 24 13.5 NW 22 37 12 20 1012.1 1006.2 0.0
20/01:00pm 32.0 27.4 9.5 25 13.3 NW 24 33 13 18 1012.5 1006.6 0.0
20/12:30pm 31.7 29.1 9.3 25 13.2 WNW 13 33 7 18 1012.8 1006.9 0.0
20/12:00pm 30.4 27.3 8.7 26 12.6 NNW 15 26 8 14 1013.4 1007.5 0.0
20/11:30am 30.2 26.1 8.6 26 12.5 NW 20 30 11 16 1013.7 1007.8 0.0
20/11:00am 28.5 25.5 10.7 33 10.6 ENE 17 24 9 13 1014.1 1008.3 0.0
20/10:30am 26.6 23.6 11.9 40 8.8 ENE 19 24 10 13 1014.4 1008.5 0.0
20/10:00am 24.6 21.6 11.9 45 7.6 ENE 19 24 10 13 1014.5 1008.6 0.0
20/09:30am 23.7 21.1 13.8 53 6.1 ENE 20 28 11 15 1014.5 1008.6 0.0
20/09:00am 21.5 18.6 13.9 62 4.6 ENE 22 28 12 15 1014.5 1008.6 0.0
20/08:30am 20.5 18.0 14.2 67 3.8 E 20 26 11 14 1014.4 1008.5 0.0
20/08:00am 19.0 15.6 13.8 72 3.1 E 24 28 13 15 1014.3 1008.4 0.0
20/07:30am 17.8 15.2 13.7 77 2.5 ENE 20 24 11 13 1014.0 1008.2 0.0
20/07:00am 17.2 14.9 12.9 76 2.5 E 17 20 9 11 1013.9 1008.1 0.0
20/06:30am 16.9 14.1 13.2 79 2.2 E 20 24 11 13 1013.6 1007.7 0.0
20/06:00am 16.6 13.9 12.8 78 2.2 ENE 19 22 10 12 1013.5 1007.6 0.0
20/05:30am 16.9 14.5 12.6 76 2.5 ENE 17 20 9 11 1013.4 1007.5 0.0
20/05:00am 17.1 14.7 12.6 75 2.6 E 17 22 9 12 1013.3 1007.4 0.0
20/04:30am 17.5 14.7 12.6 73 2.9 E 19 24 10 13 1013.3 1007.4 0.0
20/04:00am 17.8 15.0 12.5 71 3.1 ENE 19 22 10 12 1013.0 1007.1 0.0
20/03:30am 18.3 14.9 12.5 69 3.4 ENE 22 28 12 15 1013.3 1007.4 0.0
20/03:00am 18.4 15.0 12.6 69 3.4 ENE 22 30 12 16 1013.5 1007.6 0.0
20/02:30am 19.0 15.7 12.7 67 3.7 ENE 22 28 12 15 1013.6 1007.7 0.0
20/02:00am 19.3 15.2 12.8 66 3.9 ENE 26 32 14 17 1013.9 1008.1 0.0
20/01:30am 20.0 16.3 12.7 63 4.3 ENE 24 32 13 17 1014.3 1008.4 0.0
20/01:00am 21.1 17.6 13.5 62 4.6 ENE 24 35 13 19 1014.6 1008.7 0.0
20/12:30am 21.8 18.6 14.2 62 4.7 ENE 24 32 13 17 1014.7 1008.8 0.0
20/12:00am 22.9 19.1 14.7 60 5.1 E 28 39 15 21 1014.6 1008.7 0.0
 
Date/Time
EDT
Temp
°C
App
Temp
°C
Dew
Point
°C
Rel
Hum
%
Delta-T
°C
Wind Press
QNH
hPa
Press
MSL
hPa
Rain since
9am
mm
Dir  Spd
km/h
Gust
km/h
Spd
kts
Gust
kts
19/11:30pm 23.5 20.9 13.9 55 5.9 E 20 32 11 17 1014.5 1008.6 0.0
19/11:00pm 23.9 21.5 13.7 53 6.3 ESE 19 26 10 14 1014.4 1008.5 0.0
19/10:30pm 22.9 21.9 13.4 55 5.8 E 11 13 6 7 1014.0 1008.2 0.0
19/10:00pm 23.3 22.4 10.7 45 7.3 SE 6 9 3 5 1013.8 1007.9 0.0
19/09:30pm 24.6 22.7 9.0 37 8.9 ESE 9 11 5 6 1013.5 1007.6 0.0
19/09:00pm 26.1 24.5 8.1 32 10.2 WSW 6 9 3 5 1013.0 1007.1 0.0
19/08:30pm 25.7 23.7 7.3 31 10.2 NW 7 13 4 7 1012.7 1006.8 0.0
19/08:00pm 27.2 25.2 7.1 28 11.2 SW 7 9 4 5 1012.3 1006.4 0.0
19/07:30pm 28.6 25.9 7.2 26 12.0 WSW 11 17 6 9 1012.1 1006.2 0.0
19/07:00pm 30.2 26.7 7.4 24 13.0 WSW 15 19 8 10 1011.7 1005.8 0.0
19/06:30pm 31.2 26.7 7.0 22 13.7 SW 20 30 11 16 1011.5 1005.6 0.0
19/06:00pm 31.4 26.5 7.1 22 13.9 W 22 32 12 17 1011.3 1005.3 0.0
19/05:30pm 32.6 28.0 6.7 20 14.7 WSW 20 37 11 20 1011.0 1005.1 0.0
19/05:00pm 32.9 28.6 7.7 21 14.6 W 20 28 11 15 1010.9 1005.0 0.0
19/04:30pm 31.0 25.5 7.5 23 13.4 W 26 35 14 19 1011.1 1005.2 0.0
19/04:00pm 32.5 28.2 8.0 22 14.2 SW 20 35 11 19 1011.1 1005.2 0.0
19/03:30pm 32.9 28.0 8.4 22 14.3 WSW 24 35 13 19 1011.4 1005.4 0.0
19/03:00pm 32.3 29.8 9.8 25 13.4 WSW 13 20 7 11 1011.7 1005.8 0.0
19/02:30pm 31.5 27.2 7.9 23 13.6 WSW 20 30 11 16 1012.3 1006.4 0.0
19/02:00pm 31.4 28.3 7.1 22 13.9 WSW 13 28 7 15 1012.5 1006.6 0.0
19/01:30pm 31.0 26.6 7.5 23 13.4 WSW 20 28 11 15 1012.8 1006.9 0.0
19/01:00pm 30.3 26.1 8.1 25 12.8 W 20 35 11 19 1013.1 1007.3 0.0
19/12:30pm 30.8 27.8 9.1 26 12.7 WNW 15 26 8 14 1013.5 1007.6 0.0
19/12:00pm 29.6 27.0 9.2 28 11.9 W 13 20 7 11 1013.9 1008.1 0.0
19/11:30am 28.4 25.8 9.2 30 11.2 WNW 13 24 7 13 1014.3 1008.4 0.0
19/11:00am 27.6 24.5 9.0 31 10.7 W 15 20 8 11 1014.5 1008.6 0.0
19/10:30am 26.9 23.8 10.2 35 9.8 WNW 17 22 9 12 1014.7 1008.8 0.0
19/10:00am 26.4 22.8 9.7 35 9.7 W 19 26 10 14 1014.7 1008.8 0.0
19/09:30am 25.9 23.0 10.9 39 8.9 WNW 17 24 9 13 1014.5 1008.6 0.0
19/09:00am 24.3 21.8 10.9 43 7.9 WNW 15 20 8 11 1014.5 1008.6 0.0
19/08:30am 22.6 20.7 11.7 50 6.4 WNW 13 17 7 9 1014.4 1008.5 0.0
19/08:00am 20.8 18.8 11.4 55 5.5 NW 13 15 7 8 1014.1 1008.3 0.0
19/07:30am 18.3 17.0 11.4 64 4.0 WNW 9 11 5 6 1013.9 1008.1 0.0
19/07:00am 15.7 13.6 9.6 67 3.4 W 11 13 6 7 1013.7 1007.8 0.0
19/06:30am 16.2 13.4 10.1 67 3.4 WSW 15 15 8 8 1013.4 1007.5 0.0
19/06:00am 16.3 14.5 9.5 64 3.7 W 9 11 5 6 1013.0 1007.1 0.0
19/05:30am 16.6 15.0 10.2 66 3.6 NNW 9 11 5 6 1012.8 1006.9 0.0
19/05:00am 15.4 15.5 10.2 71 2.9 CALM 0 0 0 0 1012.9 1007.0 0.0
19/04:30am 16.3 16.4 10.2 67 3.4 CALM 0 0 0 0 1013.0 1007.1 0.0
19/04:00am 17.0 17.2 10.4 65 3.7 CALM 0 0 0 0 1013.3 1007.4 0.0
19/03:30am 16.4 16.8 11.1 71 3.0 CALM 0 0 0 0 1013.6 1007.7 0.0
19/03:00am 15.1 13.7 10.9 76 2.4 NNE 9 11 5 6 1013.6 1007.7 0.0
19/02:30am 15.9 14.6 11.3 74 2.6 NE 9 11 5 6 1013.7 1007.8 0.0
19/02:00am 17.0 14.7 11.7 71 3.0 NE 15 17 8 9 1014.0 1008.2 0.0
19/01:30am 17.2 15.2 11.5 69 3.3 NE 13 13 7 7 1014.3 1008.4 0.0
19/01:00am 17.2 15.1 11.2 68 3.4 ENE 13 13 7 7 1014.5 1008.6 0.0
19/12:30am 18.0 15.6 11.3 65 3.8 NE 15 19 8 10 1014.8 1009.0 0.0
19/12:00am 18.2 15.8 11.3 64 4.0 NE 15 17 8 9 1014.9 1009.1 0.0
 
Date/Time
EDT
Temp
°C
App
Temp
°C
Dew
Point
°C
Rel
Hum
%
Delta-T
°C
Wind Press
QNH
hPa
Press
MSL
hPa
Rain since
9am
mm
Dir  Spd
km/h
Gust
km/h
Spd
kts
Gust
kts
18/11:30pm 18.3 16.1 10.9 62 4.2 ENE 13 17 7 9 1015.0 1009.2 0.0
18/11:00pm 19.8 17.3 11.0 57 5.1 NE 15 20 8 11 1015.3 1009.4 0.0
18/10:30pm 20.0 17.9 11.0 56 5.2 ENE 13 17 7 9 1015.1 1009.3 0.0
18/10:00pm 20.4 17.9 11.1 55 5.4 ENE 15 17 8 9 1015.1 1009.3 0.0
18/09:30pm 21.2 18.7 11.0 52 5.9 ENE 15 17 8 9 1014.9 1009.1 0.0
18/09:00pm 23.0 19.8 11.4 48 6.8 ENE 19 24 10 13 1014.6 1008.7 0.0
18/08:30pm 24.0 19.7 10.7 43 7.8 ENE 24 30 13 16 1014.1 1008.3 0.0
18/08:00pm 24.8 20.8 9.1 37 9.0 ENE 20 28 11 15 1013.8 1007.9 0.0
18/07:30pm 25.9 22.3 8.4 33 9.9 E 17 24 9 13 1013.4 1007.5 0.0
18/07:00pm 26.9 22.2 7.9 30 10.7 ENE 22 30 12 16 1013.1 1007.3 0.0
18/06:30pm 27.8 23.3 7.1 27 11.6 E 20 26 11 14 1012.8 1006.9 0.0
18/06:00pm 29.8 25.9 7.1 24 12.8 E 17 20 9 11 1012.6 1006.7 0.0
18/05:30pm 29.6 26.7 6.3 23 13.0 SE 11 20 6 11 1012.6 1006.7 0.0

Other formats

Comma delimited format used in spreadsheet applications
http://www.bom.gov.au/fwo/IDN60801/IDN60801.95773.axf

JavaScript Object Notation format (JSON) in row-major order
http://www.bom.gov.au/fwo/IDN60801/IDN60801.95773.json

Data quality

Most of these data are generated automatically and are frequently updated. Quality checks on data are not normally performed. It is possible for incorrect values to appear. Refer to information at About Latest Weather Observations and please check the disclaimer before using these data.